Time;durP1;ratioP1;P1;durP2;ratioP2;P2;SDS_P1;SDS_P2;PMS_P1;PMS_P2;Temp;Humidity;BMP_temperature;BMP_pressure;BME280_temperature;BME280_humidity;BME280_pressure;Samples;Min_cycle;Max_cycle;Signal;HPM_P1;HPM_P2
2023/10/19 00:00:33;;;;;;;;;;;;;;;;;;5073518;28;19993;-73
2023/10/19 00:03:02;;;;;;;;;;;;;;;;;;5073323;28;20603;-74
2023/10/19 00:05:29;;;;;;;;;;;;;;;;;;5073050;28;20096;-74
2023/10/19 00:07:57;;;;;;;;;;;;;;;;;;5071690;28;20020;-73
2023/10/19 00:10:24;;;;;;;;;;;;;;;;;;5072669;28;20460;-73
2023/10/19 00:12:57;;;;;;;;;;;;;;;;;;5072823;28;20053;-74
2023/10/19 00:15:25;;;;;;;;;;;;;;;;;;5072950;28;20042;-73
2023/10/19 00:17:53;;;;;;;;;;;;;;;;;;5054194;28;19996;-74
2023/10/19 00:23:09;;;;;;;;;;;;;;;;;;5071595;28;19996;-73
2023/10/19 00:25:41;;;;;;;;;;;;;;;;;;5072791;28;19997;-73
2023/10/19 00:28:07;;;;;;;;;;;;;;;;;;5072347;28;20019;-74
2023/10/19 00:30:35;;;;;;;;;;;;;;;;;;5072673;28;20072;-74
2023/10/19 00:33:03;;;;;;;;;;;;;;;;;;5054523;28;20008;-73
2023/10/19 00:35:36;;;;;;;;;;;;;;;;;;5072429;28;19990;-72
2023/10/19 00:40:53;;;;;;;;;;;;;;;;;;5041002;28;19997;-72
2023/10/19 00:43:23;;;;;;;;;;;;;;;;;;5072228;28;19985;-72
2023/10/19 00:45:52;;;;;;;;;;;;;;;;;;5072138;28;20084;-71
2023/10/19 00:48:19;;;;;;;;;;;;;;;;;;5071952;28;20021;-73
2023/10/19 00:50:52;;;;;;;;;;;;;;;;;;5072158;28;20028;-75
2023/10/19 00:53:18;;;;;;;;;;;;;;;;;;5054293;28;20122;-73
2023/10/19 00:55:44;;;;;;;;;;;;;;;;;;5070876;28;20034;-74
2023/10/19 00:58:10;;;;;;;;;;;;;;;;;;5074132;28;19989;-74
2023/10/19 01:00:43;;;;;;;;;;;;;;;;;;5061939;28;20092;-73
2023/10/19 01:03:09;;;;;;;;;;;;;;;;;;5060622;28;20063;-73
2023/10/19 01:05:38;;;;;;;;;;;;;;;;;;5077408;28;20001;-75
2023/10/19 01:08:22;;;;;;;;;;;;;;;;;;5075660;28;20017;-75
2023/10/19 01:10:51;;;;;;;;;;;;;;;;;;5056856;28;19996;-74
2023/10/19 01:13:18;;;;;;;;;;;;;;;;;;5075560;28;20008;-75
2023/10/19 01:15:49;;;;;;;;;;;;;;;;;;5058083;28;20129;-76
2023/10/19 01:18:16;;;;;;;;;;;;;;;;;;5053990;28;19997;-75
2023/10/19 01:20:54;;;;;;;;;;;;;;;;;;5072950;28;20473;-75
2023/10/19 01:23:21;;;;;;;;;;;;;;;;;;5073336;28;19985;-74
2023/10/19 01:25:50;;;;;;;;;;;;;;;;;;5072458;28;20135;-74
2023/10/19 01:28:17;;;;;;;;;;;;;;;;;;5053501;28;20024;-71
2023/10/19 01:30:44;;;;;;;;;;;;;;;;;;5070500;28;19993;-72
2023/10/19 01:33:13;;;;;;;;;;;;;;;;;;5071447;28;20031;-72
2023/10/19 01:38:25;;;;;;;;;;;;;;;;;;5071311;28;20103;-73
2023/10/19 01:40:51;;;;;;;;;;;;;;;;;;5071634;28;20013;-74
2023/10/19 01:43:36;;;;;;;;;;;;;;;;;;5071633;28;20130;-74
2023/10/19 01:46:11;;;;;;;;;;;;;;;;;;5070133;28;20004;-74
2023/10/19 01:48:38;;;;;;;;;;;;;;;;;;5070792;28;20087;-73
2023/10/19 01:51:07;;;;;;;;;;;;;;;;;;5071519;28;19997;-73
2023/10/19 01:53:34;;;;;;;;;;;;;;;;;;5071190;28;20469;-74
2023/10/19 01:56:00;;;;;;;;;;;;;;;;;;5053239;28;20036;-73
2023/10/19 01:58:26;;;;;;;;;;;;;;;;;;5071129;28;20090;-73
2023/10/19 02:00:55;;;;;;;;;;;;;;;;;;5071018;28;19989;-73
2023/10/19 02:03:24;;;;;;;;;;;;;;;;;;5071091;28;19985;-73
2023/10/19 02:05:53;;;;;;;;;;;;;;;;;;5070945;28;20108;-74
2023/10/19 02:08:25;;;;;;;;;;;;;;;;;;5052791;28;20028;-73
2023/10/19 02:10:51;;;;;;;;;;;;;;;;;;5056999;28;19994;-73
2023/10/19 02:13:17;;;;;;;;;;;;;;;;;;5075176;28;20389;-73
2023/10/19 02:15:43;;;;;;;;;;;;;;;;;;5074769;28;20033;-73
2023/10/19 02:18:10;;;;;;;;;;;;;;;;;;5074750;28;19997;-72
2023/10/19 02:20:40;;;;;;;;;;;;;;;;;;5074853;28;19989;-74
2023/10/19 02:23:06;;;;;;;;;;;;;;;;;;5073734;28;20407;-74
2023/10/19 02:25:36;;;;;;;;;;;;;;;;;;5074873;28;20023;-73
2023/10/19 02:28:02;;;;;;;;;;;;;;;;;;5056768;28;20013;-73
2023/10/19 02:30:30;;;;;;;;;;;;;;;;;;5075012;28;20088;-73
2023/10/19 02:32:56;;;;;;;;;;;;;;;;;;5074887;28;20024;-74
2023/10/19 02:35:22;;;;;;;;;;;;;;;;;;5074577;28;20035;-74
2023/10/19 02:37:48;;;;;;;;;;;;;;;;;;5073742;28;19989;-74
2023/10/19 02:40:23;;;;;;;;;;;;;;;;;;5074479;28;20461;-72
2023/10/19 02:42:53;;;;;;;;;;;;;;;;;;5074350;28;19985;-72
2023/10/19 02:45:19;;;;;;;;;;;;;;;;;;5074522;28;19994;-73
2023/10/19 02:47:45;;;;;;;;;;;;;;;;;;5074122;28;20070;-73
2023/10/19 02:50:13;;;;;;;;;;;;;;;;;;5074307;28;20072;-73
2023/10/19 02:52:40;;;;;;;;;;;;;;;;;;5074344;28;19989;-73
2023/10/19 02:55:06;;;;;;;;;;;;;;;;;;5073017;28;19993;-74
2023/10/19 02:57:32;;;;;;;;;;;;;;;;;;5074306;28;20043;-74
2023/10/19 02:59:59;;;;;;;;;;;;;;;;;;5074503;28;19996;-73
2023/10/19 03:02:28;;;;;;;;;;;;;;;;;;5074284;28;20384;-73
2023/10/19 03:04:54;;;;;;;;;;;;;;;;;;5074061;28;20001;-75
2023/10/19 03:07:20;;;;;;;;;;;;;;;;;;5074079;28;20104;-74
2023/10/19 03:09:53;;;;;;;;;;;;;;;;;;5073865;28;20561;-74
2023/10/19 03:12:19;;;;;;;;;;;;;;;;;;5055022;28;19993;-73
2023/10/19 03:14:48;;;;;;;;;;;;;;;;;;5074022;28;19992;-73
2023/10/19 03:17:14;;;;;;;;;;;;;;;;;;5073836;28;20028;-74
2023/10/19 03:19:40;;;;;;;;;;;;;;;;;;5073326;28;20402;-73
2023/10/19 03:22:08;;;;;;;;;;;;;;;;;;5073858;28;19993;-73
2023/10/19 03:27:12;;;;;;;;;;;;;;;;;;5073927;28;20005;-74
2023/10/19 03:29:38;;;;;;;;;;;;;;;;;;5072401;28;20368;-72
2023/10/19 03:32:05;;;;;;;;;;;;;;;;;;5073924;28;20072;-73
2023/10/19 03:34:32;;;;;;;;;;;;;;;;;;5073826;28;20505;-74
2023/10/19 03:37:05;;;;;;;;;;;;;;;;;;5072541;28;19993;-74
2023/10/19 03:39:31;;;;;;;;;;;;;;;;;;5073778;28;19989;-73
2023/10/19 03:41:59;;;;;;;;;;;;;;;;;;5073681;28;19993;-73
2023/10/19 03:44:25;;;;;;;;;;;;;;;;;;5073658;28;19989;-74
2023/10/19 03:47:04;;;;;;;;;;;;;;;;;;5073184;28;20031;-73
2023/10/19 03:49:39;;;;;;;;;;;;;;;;;;5073224;28;19993;-73
2023/10/19 03:54:40;;;;;;;;;;;;;;;;;;5053385;28;19994;-73
2023/10/19 03:57:08;;;;;;;;;;;;;;;;;;5053188;28;20450;-73
2023/10/19 03:59:34;;;;;;;;;;;;;;;;;;5035379;28;20524;-73
2023/10/19 04:02:07;;;;;;;;;;;;;;;;;;5053017;28;19998;-73
2023/10/19 04:04:33;;;;;;;;;;;;;;;;;;5053025;28;20084;-73
2023/10/19 04:06:59;;;;;;;;;;;;;;;;;;5053018;28;20077;-73
2023/10/19 04:09:29;;;;;;;;;;;;;;;;;;5052957;28;20103;-73
2023/10/19 04:11:56;;;;;;;;;;;;;;;;;;5069941;28;20039;-73
2023/10/19 04:14:21;;;;;;;;;;;;;;;;;;5072722;28;20077;-73
2023/10/19 04:16:48;;;;;;;;;;;;;;;;;;5072829;28;20048;-72
2023/10/19 04:19:15;;;;;;;;;;;;;;;;;;5072680;28;20014;-74
2023/10/19 04:21:46;;;;;;;;;;;;;;;;;;5072606;28;20032;-74
2023/10/19 04:24:12;;;;;;;;;;;;;;;;;;5054602;28;19989;-73
2023/10/19 04:26:38;;;;;;;;;;;;;;;;;;5071482;28;19994;-74
2023/10/19 04:29:11;;;;;;;;;;;;;;;;;;5072347;28;20072;-74
2023/10/19 04:31:37;;;;;;;;;;;;;;;;;;5071651;28;20004;-73
2023/10/19 04:34:07;;;;;;;;;;;;;;;;;;5071128;28;19989;-74
2023/10/19 04:36:33;;;;;;;;;;;;;;;;;;5072284;28;19993;-74
2023/10/19 04:39:00;;;;;;;;;;;;;;;;;;5072536;28;19994;-73
2023/10/19 04:41:29;;;;;;;;;;;;;;;;;;5072179;28;20102;-74
2023/10/19 04:43:58;;;;;;;;;;;;;;;;;;5072301;28;20380;-73
2023/10/19 04:46:24;;;;;;;;;;;;;;;;;;5071888;28;20442;-73
2023/10/19 04:48:50;;;;;;;;;;;;;;;;;;5071853;28;20017;-73
2023/10/19 04:51:17;;;;;;;;;;;;;;;;;;5071144;28;19995;-73
2023/10/19 04:53:43;;;;;;;;;;;;;;;;;;5072153;28;20453;-73
2023/10/19 04:56:09;;;;;;;;;;;;;;;;;;5072283;28;20080;-72
2023/10/19 04:58:35;;;;;;;;;;;;;;;;;;5073451;28;20024;-74
2023/10/19 05:01:03;;;;;;;;;;;;;;;;;;5057692;28;19993;-73
2023/10/19 05:03:29;;;;;;;;;;;;;;;;;;5077014;28;20407;-73
2023/10/19 05:05:56;;;;;;;;;;;;;;;;;;5076188;28;20047;-72
2023/10/19 05:08:24;;;;;;;;;;;;;;;;;;5073431;28;20013;-72
2023/10/19 05:10:50;;;;;;;;;;;;;;;;;;5072265;28;19993;-73
2023/10/19 05:13:16;;;;;;;;;;;;;;;;;;5072297;28;20000;-73
2023/10/19 05:15:43;;;;;;;;;;;;;;;;;;5072571;28;20485;-76
2023/10/19 05:18:09;;;;;;;;;;;;;;;;;;5074824;28;20075;-75
2023/10/19 05:20:39;;;;;;;;;;;;;;;;;;5055498;28;20405;-76
2023/10/19 05:23:05;;;;;;;;;;;;;;;;;;5072633;28;19992;-75
2023/10/19 05:25:31;;;;;;;;;;;;;;;;;;5070978;28;19993;-75
2023/10/19 05:27:58;;;;;;;;;;;;;;;;;;5074243;28;20489;-74
2023/10/19 05:30:24;;;;;;;;;;;;;;;;;;5072556;28;20036;-75
2023/10/19 05:32:50;;;;;;;;;;;;;;;;;;5073081;28;19993;-77
2023/10/19 05:35:22;;;;;;;;;;;;;;;;;;5073213;28;20021;-75
2023/10/19 05:37:49;;;;;;;;;;;;;;;;;;5072294;28;19985;-78
2023/10/19 05:40:15;;;;;;;;;;;;;;;;;;5062414;28;19996;-71
2023/10/19 05:42:41;;;;;;;;;;;;;;;;;;5067864;28;19989;-70
2023/10/19 05:45:07;;;;;;;;;;;;;;;;;;5071391;28;20028;-70
2023/10/19 05:47:34;;;;;;;;;;;;;;;;;;5070755;28;20036;-70
2023/10/19 05:50:00;;;;;;;;;;;;;;;;;;5071398;28;20498;-71
2023/10/19 05:52:26;;;;;;;;;;;;;;;;;;5071506;28;20077;-71
2023/10/19 05:54:53;;;;;;;;;;;;;;;;;;5071071;28;19989;-70
2023/10/19 05:57:19;;;;;;;;;;;;;;;;;;5067770;28;20547;-72
2023/10/19 05:59:45;;;;;;;;;;;;;;;;;;5068594;28;19989;-70
2023/10/19 06:02:11;;;;;;;;;;;;;;;;;;5071445;28;20058;-71
2023/10/19 06:04:37;;;;;;;;;;;;;;;;;;5071114;28;20087;-69
2023/10/19 06:07:03;;;;;;;;;;;;;;;;;;5070826;28;19989;-69
2023/10/19 06:09:29;;;;;;;;;;;;;;;;;;5070964;28;19985;-71
2023/10/19 06:11:55;;;;;;;;;;;;;;;;;;5071179;28;19986;-69
2023/10/19 06:14:21;;;;;;;;;;;;;;;;;;5071134;28;20460;-69
2023/10/19 06:16:47;;;;;;;;;;;;;;;;;;5070814;28;20039;-70
2023/10/19 06:19:13;;;;;;;;;;;;;;;;;;5071170;28;20422;-69
2023/10/19 06:21:39;;;;;;;;;;;;;;;;;;5070941;28;20350;-69
2023/10/19 06:24:05;;;;;;;;;;;;;;;;;;5070929;28;19990;-70
2023/10/19 06:26:31;;;;;;;;;;;;;;;;;;5071106;28;19992;-72
2023/10/19 06:28:59;;;;;;;;;;;;;;;;;;5070900;28;20374;-72
2023/10/19 06:31:25;;;;;;;;;;;;;;;;;;5070966;28;20534;-72
2023/10/19 06:33:51;;;;;;;;;;;;;;;;;;5049409;28;20031;-75
2023/10/19 06:36:18;;;;;;;;;;;;;;;;;;5050788;28;19989;-72
2023/10/19 06:38:44;;;;;;;;;;;;;;;;;;5051250;28;19994;-71
2023/10/19 06:41:11;;;;;;;;;;;;;;;;;;5050865;28;19990;-72
2023/10/19 06:43:37;;;;;;;;;;;21.20;99.90;;;;;;5032906;28;20033;-71
2023/10/19 06:46:03;;;;;;;;;;;;;;;;;;5050799;28;20430;-71
2023/10/19 06:48:29;;;;;;;;;;;;;;;;;;5054336;28;20031;-73
2023/10/19 06:50:55;;;;;;;;;;;;;;;;;;5071178;28;19996;-73
2023/10/19 06:53:21;;;;;;;;;;;;;;;;;;5069670;28;20088;-73
2023/10/19 06:55:47;;;;;;;;;;;;;;;;;;5075530;28;19996;-71
2023/10/19 06:58:19;;;;;;;;;;;;;;;;;;5070509;28;19989;-71
2023/10/19 07:00:52;;;;;;;;;;;;;;;;;;5074715;28;19990;-72
2023/10/19 07:03:22;;;;;;;;;;;;;;;;;;5056681;28;20037;-72
2023/10/19 07:05:47;;;;;;;;;;;;;;;;;;5071327;28;20366;-71
2023/10/19 07:08:13;;;;;;;;;;;;;;;;;;5073925;28;20013;-71
2023/10/19 07:10:39;;;;;;;;;;;;;;;;;;5072786;28;20001;-72
2023/10/19 07:13:05;;;;;;;;;;;;;;;;;;5072023;28;20020;-73
2023/10/19 07:15:31;;;;;;;;;;;;;;;;;;5055573;28;19997;-72
2023/10/19 07:17:58;;;;;;;;;;;;;;;;;;5074092;28;19993;-71
2023/10/19 07:20:35;;;;;;;;;;;;;;;;;;5074230;28;19993;-72
2023/10/19 07:23:17;;;;;;;;;;;;;;;;;;5074179;28;19993;-71
2023/10/19 07:25:43;;;;;;;;;;;;;;;;;;5074029;28;20039;-72
2023/10/19 07:28:09;;;;;;;;;;;;;;;;;;5072614;28;20090;-71
2023/10/19 07:30:36;;;;;;;;;;;;;;;;;;5073824;28;19989;-71
2023/10/19 07:33:04;;;;;;;;;;;;;;;;;;5073865;28;20076;-71
2023/10/19 07:35:31;;;;;;;;;;;;;;;;;;5073860;28;20130;-71
2023/10/19 07:37:57;;;;;;;;;;;;;;;;;;5073901;28;19986;-72
2023/10/19 07:40:24;;;;;;;;;;;;;;;;;;5073776;28;20076;-71
2023/10/19 07:42:51;;;;;;;;;;;;;;;;;;5072608;28;20608;-71
2023/10/19 07:45:17;;;;;;;;;;;;;;;;;;5073656;28;20000;-71
2023/10/19 07:47:44;;;;;;;;;;;;;;;;;;5073274;28;20025;-72
2023/10/19 07:50:16;;;;;;;;;;;;;;;;;;5073607;28;19996;-73
2023/10/19 07:52:43;;;;;;;;;;;;;;;;;;5055296;28;19989;-71
2023/10/19 07:55:09;;;;;;;;;;;;;;;;;;5073146;28;19989;-71
2023/10/19 07:57:35;;;;;;;;;;;;;;;;;;5073747;28;20075;-71
2023/10/19 08:00:01;;;;;;;;;;;;;;;;;;5072096;28;20113;-72
2023/10/19 08:02:28;;;;;;;;;;;;;;;;;;5073234;28;20529;-72
2023/10/19 08:04:54;;;;;;;;;;;;;;;;;;5072976;28;20414;-72
2023/10/19 08:07:21;;;;;;;;;;;;;;;;;;5073072;28;20445;-72
2023/10/19 08:09:47;;;;;;;;;;;;;;;;;;5073007;28;20005;-72
2023/10/19 08:12:13;;;;;;;;;;;;;;;;;;5073169;28;19993;-72
2023/10/19 08:14:39;;;;;;;;;;;;;;;;;;5072904;28;19997;-72
2023/10/19 08:17:08;;;;;;;;;;;;;;;;;;5072877;28;19985;-72
2023/10/19 08:19:34;;;;;;;;;;;;;;;;;;5071971;28;20000;-72
2023/10/19 08:22:00;;;;;;;;;;;;;;;;;;5072686;28;19993;-72
2023/10/19 08:24:30;;;;;;;;;;;;;;;;;;5054606;28;19998;-71
2023/10/19 08:26:56;;;;;;;;;;;;;;;;;;5072663;28;19993;-72
2023/10/19 08:29:23;;;;;;;;;;;;;;;;;;5072674;28;19993;-73
2023/10/19 08:31:49;;;;;;;;;;;;;;;;;;5072750;28;19993;-70
2023/10/19 08:34:15;;;;;;;;;;;;;;;;;;5071551;28;20004;-71
2023/10/19 08:36:42;;;;;;;;;;;;;;;;;;5072475;28;20084;-71
2023/10/19 08:39:08;;;;;;;;;;;;;;;;;;5072297;28;19989;-72
2023/10/19 08:41:34;;;;;;;;;;;;;;;;;;5072255;28;19995;-71
2023/10/19 08:44:01;;;;;;;;;;;;;;;;;;5072383;28;20080;-73
2023/10/19 08:46:28;;;;;;;;;;;;;;;;;;5070791;28;19992;-70
2023/10/19 08:48:54;;;;;;;;;;;;;;;;;;5072002;28;20024;-71
2023/10/19 08:51:19;;;;;;;;;;;;;;;;;;5072013;28;20369;-72
2023/10/19 08:53:46;;;;;;;;;;;;;;;;;;5071982;28;19996;-72
2023/10/19 08:56:12;;;;;;;;;;;;;;;;;;5072088;28;20506;-71
2023/10/19 08:58:38;;;;;;;;;;;21.10;99.90;;;;;;5072448;28;20091;-71
2023/10/19 09:01:07;;;;;;;;;;;;;;;;;;5055203;28;20013;-71
2023/10/19 09:03:33;;;;;;;;;;;;;;;;;;5071540;28;19990;-72
2023/10/19 09:06:00;;;;;;;;;;;;;;;;;;5072551;28;20052;-71
2023/10/19 09:08:38;;;;;;;;;;;;;;;;;;5072160;28;20024;-71
2023/10/19 09:11:04;;;;;;;;;;;;;;;;;;5072287;28;19989;-70
2023/10/19 09:13:29;;;;;;;;;;;;;;;;;;5072039;28;19992;-71
2023/10/19 09:15:55;;;;;;;;;;;;;;;;;;5072069;28;19989;-71
2023/10/19 09:18:21;;;;;;;;;;;;;;;;;;5071421;28;20588;-71
2023/10/19 09:20:53;;;;;;;;;;;;;;;;;;5071891;28;19989;-74
2023/10/19 09:23:20;;;;;;;;;;;;;;;;;;5070667;28;19994;-72
2023/10/19 09:25:46;;;;;;;;;;;;;;;;;;5072035;28;20025;-71
2023/10/19 09:28:13;;;;;;;;;;;;;;;;;;5071841;28;20063;-71
2023/10/19 09:30:39;;;;;;;;;;;;;;;;;;5072315;28;20039;-71
2023/10/19 09:33:07;;;;;;;;;;;;;;;;;;5071966;28;20416;-71
2023/10/19 09:35:32;;;;;;;;;;;;;;;;;;5071489;28;20460;-71
2023/10/19 09:38:00;;;;;;;;;;;;;;;;;;5071766;28;20088;-71
2023/10/19 09:40:29;;;;;;;;;;;;;;;;;;5070322;28;19993;-72
2023/10/19 09:42:55;;;;;;;;;;;;;;;;;;5053293;28;19990;-71
2023/10/19 09:45:23;;;;;;;;;;;;;;;;;;5071432;28;20076;-70
2023/10/19 09:47:49;;;;;;;;;;;;;;;;;;5053533;28;20025;-71
2023/10/19 09:50:15;;;;;;;;;;;;;;;;;;5053699;28;19996;-72
2023/10/19 09:52:41;;;;;;;;;;;;;;;;;;5071526;28;20450;-71
2023/10/19 09:55:08;;;;;;;;;;;;;;;;;;5071564;28;20429;-72
2023/10/19 09:57:34;;;;;;;;;;;;;;;;;;5070049;28;20000;-72
2023/10/19 10:00:07;;;;;;;;;;;;;;;;;;5071388;28;19989;-72
2023/10/19 10:02:33;;;;;;;;;;;;;;;;;;5071262;28;20446;-72
2023/10/19 10:04:59;;;;;;;;;;;;;;;;;;5071086;28;20099;-71
2023/10/19 10:07:26;;;;;;;;;;;;;;;;;;5071169;28;20019;-71
2023/10/19 10:09:53;;;;;;;;;;;;;;;;;;5071339;28;20075;-71
2023/10/19 10:12:19;;;;;;;;;;;;;;;;;;5071190;28;19989;-72
2023/10/19 10:14:45;;;;;;;;;;;;;;;;;;5070062;28;20047;-72
2023/10/19 10:17:11;;;;;;;;;;;;;;;;;;5071151;28;19989;-72
2023/10/19 10:19:38;;;;;;;;;;;;;;;;;;5053060;28;20054;-73
2023/10/19 10:22:05;;;;;;;;;;;;;;;;;;5071304;28;19990;-71
2023/10/19 10:24:31;;;;;;;;;;;;;;;;;;5071155;28;19989;-71
2023/10/19 10:26:56;;;;;;;;;;;;;;;;;;5070897;28;20042;-72
2023/10/19 10:29:23;;;;;;;;;;;;;;;;;;5071248;28;20017;-71
2023/10/19 10:31:49;;;;;;;;;;;;;;;;;;5073765;28;20000;-72
2023/10/19 10:34:15;;;;;;;;;;;;;;;;;;5075241;28;20001;-72
2023/10/19 10:36:41;;;;;;;;;;;;;;;;;;5074960;28;19993;-72
2023/10/19 10:39:14;;;;;;;;;;;;;;;;;;5074833;28;20409;-72
2023/10/19 10:41:41;;;;;;;;;;;;;;;;;;5074947;28;20020;-72
2023/10/19 10:44:07;;;;;;;;;;;;;;;;;;5074843;28;20036;-72
2023/10/19 10:46:33;;;;;;;;;;;;;;;;;;5074676;28;20032;-72
2023/10/19 10:48:59;;;;;;;;;;;;;;;;;;5073422;28;20017;-72
2023/10/19 10:51:25;;;;;;;;;;;;;;;;;;5074792;28;20031;-72
2023/10/19 10:53:51;;;;;;;;;;;;;;;;;;5074486;28;19989;-71
2023/10/19 10:56:17;;;;;;;;;;;;;;;;;;5074593;28;20088;-72
2023/10/19 10:58:44;;;;;;;;;;;;;;;;;;5074638;28;19996;-72
2023/10/19 11:01:10;;;;;;;;;;;;;;;;;;5073630;28;20361;-72
2023/10/19 11:03:36;;;;;;;;;;;;;;;;;;5073570;28;19989;-71
2023/10/19 11:06:02;;;;;;;;;;;;;;;;;;5074318;28;20469;-72
2023/10/19 11:08:28;;;;;;;;;;;;;;;;;;5074402;28;20013;-72
2023/10/19 11:10:54;;;;;;;;;;;;;;;;;;5056186;28;20154;-72
2023/10/19 11:13:20;;;;;;;;;;;;;;;;;;5074021;28;19993;-72
2023/10/19 11:15:47;;;;;;;;;;;;;;;;;;5074182;28;20084;-71
2023/10/19 11:18:13;;;;;;;;;;;;;;;;;;5074196;28;20054;-72
2023/10/19 11:20:38;;;;;;;;;;;;;;;;;;5072881;28;19997;-73
2023/10/19 11:23:05;;;;;;;;;;;;;;;;;;5074020;28;20039;-72
2023/10/19 11:25:31;;;;;;;;;;;;;;;;;;5073981;28;19985;-72
2023/10/19 11:27:57;;;;;;;;;;;;;;;;;;5073654;28;20084;-71
2023/10/19 11:30:23;;;;;;;;;;;;;;;;;;5073922;28;20118;-72
2023/10/19 11:32:52;;;;;;;;;;;;;;;;;;5073598;28;20434;-70
2023/10/19 11:35:18;;;;;;;;;;;;;;;;;;5053877;28;20481;-71
2023/10/19 11:37:44;;;;;;;;;;;;;;;;;;5073675;28;20029;-71
2023/10/19 11:40:10;;;;;;;;;;;;;;;;;;5073458;28;19992;-72
2023/10/19 11:42:36;;;;;;;;;;;;;;;;;;5073581;28;20055;-72
2023/10/19 11:45:02;;;;;;;;;;;;;;;;;;5073429;28;19997;-71
2023/10/19 11:47:29;;;;;;;;;;;;;;;;;;5073655;28;20401;-72
2023/10/19 11:49:55;;;;;;;;;;;;;;;;;;5073569;28;20091;-72
2023/10/19 11:52:21;;;;;;;;;;;;;;;;;;5072219;28;19993;-71
2023/10/19 11:54:47;;;;;;;;;;;;;;;;;;5073290;28;19993;-72
2023/10/19 11:57:13;;;;;;;;;;;;;;;;;;5073560;28;20298;-71
2023/10/19 11:59:40;;;;;;;;;;;;;;;;;;5073526;28;20068;-72
2023/10/19 12:02:06;;;;;;;;;;;;;;;;;;5071769;28;19993;-71
2023/10/19 12:04:36;;;;;;;;;;;;;;;;;;5073502;28;20475;-71
2023/10/19 12:07:03;;;;;;;;;;;;;;;;;;5073235;28;20263;-72
2023/10/19 12:09:29;;;;;;;;;;;;;;;;;;5071832;28;20355;-72
2023/10/19 12:11:55;;;;;;;;;;;;;;;;;;5073187;28;19989;-72
2023/10/19 12:14:22;;;;;;;;;;;;;;;;;;5073274;28;20358;-72
2023/10/19 12:16:48;;;;;;;;;;;;;;;;;;5073006;28;20438;-72
2023/10/19 12:19:14;;;;;;;;;;;;;;;;;;5072944;28;19985;-72
2023/10/19 12:21:44;;;;;;;;;;;;;;;;;;5072711;28;19996;-72
2023/10/19 12:24:10;;;;;;;;;;;;;;;;;;5071519;28;20019;-73
2023/10/19 12:26:36;;;;;;;;;;;;;;;;;;5072758;28;20268;-73
2023/10/19 12:29:05;;;;;;;;;;;;;;;;;;5072829;28;20272;-71
2023/10/19 12:31:31;;;;;;;;;;;;;;;;;;5072574;28;20012;-71
2023/10/19 12:33:57;;;;;;;;;;;;;;;;;;5072630;28;19985;-71
2023/10/19 12:36:32;;;;;;;;;;;;;;;;;;5072556;28;20039;-72
2023/10/19 12:38:58;;;;;;;;;;;;;;;;;;5072635;28;19999;-73
2023/10/19 12:41:30;;;;;;;;;;;;;;;;;;5071354;28;19993;-72
2023/10/19 12:44:02;;;;;;;;;;;;;;;;;;5052688;28;20044;-73
2023/10/19 12:46:29;;;;;;;;;;;;;;;;;;5055827;28;19989;-71
2023/10/19 12:48:58;;;;;;;;;;;;;;;;;;5072013;28;20104;-73
2023/10/19 12:51:24;;;;;;;;;;;;;;;;;;5072255;28;20381;-72
2023/10/19 12:53:51;;;;;;;;;;;;;;;;;;5071555;28;19989;-72
2023/10/19 12:56:18;;;;;;;;;;;;;;;;;;5072395;28;20545;-71
2023/10/19 12:58:44;;;;;;;;;;;;;;;;;;5072810;28;19994;-72
2023/10/19 13:01:16;;;;;;;;;;;;;;;;;;5072495;28;19989;-72
2023/10/19 13:03:45;;;;;;;;;;;;;;;;;;5071645;28;20092;-72
2023/10/19 13:06:11;;;;;;;;;;;;;;;;;;5072819;28;20008;-72
2023/10/19 13:08:40;;;;;;;;;;;;;;;;;;5054347;28;20112;-72
2023/10/19 13:11:06;;;;;;;;;;;;;;;;;;5072101;28;19993;-71
2023/10/19 13:13:32;;;;;;;;;;;;;;;;;;5071947;28;20472;-73
2023/10/19 13:15:59;;;;;;;;;;;;;;;;;;5071887;28;19989;-71
2023/10/19 13:18:29;;;;;;;;;;;;;;;;;;5071758;28;20000;-71
2023/10/19 13:20:55;;;;;;;;;;;;;;;;;;5070682;28;20032;-71
2023/10/19 13:23:22;;;;;;;;;;;;;;;;;;5071815;28;19993;-71
2023/10/19 13:25:57;;;;;;;;;;;;;;;;;;5071799;28;20345;-70
2023/10/19 13:28:23;;;;;;;;;;;;;;;;;;5052625;28;20017;-72
2023/10/19 13:30:49;;;;;;;;;;;;;;;;;;5071750;28;20142;-72
2023/10/19 13:33:15;;;;;;;;;;;;;;;;;;5071698;28;20016;-71
2023/10/19 13:35:41;;;;;;;;;;;;;;;;;;5071696;28;20350;-71
2023/10/19 13:38:07;;;;;;;;;;;;;;;;;;5070459;28;20012;-71
2023/10/19 13:40:33;;;;;;;;;;;;;;;;;;5070337;28;20472;-71
2023/10/19 13:42:59;;;;;;;;;;;;;;;;;;5071685;28;20075;-71
2023/10/19 13:45:25;;;;;;;;;;;;;;;;;;5071349;28;20434;-72
2023/10/19 13:47:54;;;;;;;;;;;;;;;;;;5071403;28;20112;-71
2023/10/19 13:50:23;;;;;;;;;;;;;;;;;;5071431;28;20368;-70
2023/10/19 13:52:49;;;;;;;;;;;;;;;;;;5071398;28;20461;-70
2023/10/19 13:55:18;;;;;;;;;;;;;;;;;;5070166;28;19994;-71
2023/10/19 13:57:44;;;;;;;;;;;;;;;;;;5053368;28;20406;-71
2023/10/19 14:00:10;;;;;;;;;;;;;;;;;;5071712;28;19993;-71
2023/10/19 14:02:36;;;;;;;;;;;;;;;;;;5071453;28;20146;-71
2023/10/19 14:05:04;;;;;;;;;;;;;;;;;;5074541;28;20465;-71
2023/10/19 14:07:31;;;;;;;;;;;;;;;;;;5075387;28;20473;-72
2023/10/19 14:09:57;;;;;;;;;;;;;;;;;;5074083;28;20023;-70
2023/10/19 14:12:23;;;;;;;;;;;;;;;;;;5075394;28;20080;-71
2023/10/19 14:14:49;;;;;;;;;;;;;;;;;;5075720;28;20515;-70
2023/10/19 14:17:15;;;;;;;;;;;;;;;;;;5075694;28;19992;-70
2023/10/19 14:19:44;;;;;;;;;;;;;;;;;;5075233;28;19985;-69
2023/10/19 14:22:10;;;;;;;;;;;;;;;;;;5075262;28;20461;-70
2023/10/19 14:24:36;;;;;;;;;;;;;;;;;;5074108;28;19993;-71
2023/10/19 14:27:02;;;;;;;;;;;;;;;;;;5075710;28;20036;-70
2023/10/19 14:29:28;;;;;;;;;;;;;;;;;;5074862;28;20020;-70
2023/10/19 14:31:54;;;;;;;;;;;;;;;;;;5075167;28;19989;-70
2023/10/19 14:34:20;;;;;;;;;;;;;;;;;;5075168;28;20408;-69
2023/10/19 14:36:46;;;;;;;;;;;;;;;;;;5074892;28;19989;-69
2023/10/19 14:39:14;;;;;;;;;;;;;;;;;;5075284;28;19985;-69
2023/10/19 14:41:40;;;;;;;;;;;;;;;;;;5056142;28;20016;-70
2023/10/19 14:44:07;;;;;;;;;;;;;;;;;;5074681;28;20441;-70
2023/10/19 14:46:33;;;;;;;;;;;;;;;;;;5074593;28;19999;-69
2023/10/19 14:48:59;;;;;;;;;;;;;;;;;;5074553;28;20108;-69
2023/10/19 14:51:25;;;;;;;;;;;;;;;;;;5075053;28;20031;-69
2023/10/19 14:53:51;;;;;;;;;;;;;;;;;;5074496;28;19985;-69
2023/10/19 14:56:17;;;;;;;;;;;;;;;;;;5056742;28;20385;-69
2023/10/19 14:58:43;;;;;;;;;;;;;;;;;;5073449;28;20373;-70
2023/10/19 15:01:14;;;;;;;;;;;;;;;;;;5073047;28;20344;-69
2023/10/19 15:03:40;;;;;;;;;;;;;;;;;;5067425;28;20496;-72
2023/10/19 15:06:06;;;;;;;;;;;;;;;;;;5073031;28;20105;-70
2023/10/19 15:08:32;;;;;;;;;;;;;;;;;;5073573;28;20044;-71
2023/10/19 15:10:58;;;;;;;;;;;;;;;;;;5068448;28;20090;-72
2023/10/19 15:13:25;;;;;;;;;;;;;;;;;;5062976;28;20002;-73
2023/10/19 15:15:51;;;;;;;;;;;;;;;;;;5066716;28;19996;-72
2023/10/19 15:18:18;;;;;;;;;;;;;;;;;;5056426;28;20319;-72
2023/10/19 15:20:43;;;;;;;;;;;;;;;;;;5069911;28;20082;-71
2023/10/19 15:23:09;;;;;;;;;;;;;;;;;;5072832;28;20013;-70
2023/10/19 15:25:35;;;;;;;;;;;;;;;;;;5073780;28;20501;-71
2023/10/19 15:28:02;;;;;;;;;;;;;;;;;;5072586;28;20009;-72
2023/10/19 15:30:27;;;;;;;;;;;;;;;;;;5055637;28;20000;-71
2023/10/19 15:32:53;;;;;;;;;;;;;;;;;;5059362;28;20000;-72
2023/10/19 15:35:23;;;;;;;;;;;;;;;;;;5072587;28;20033;-71
2023/10/19 15:37:49;;;;;;;;;;;;;;;;;;5072105;28;19989;-71
2023/10/19 15:40:15;;;;;;;;;;;;;;;;;;5072763;28;19996;-71
2023/10/19 15:42:42;;;;;;;;;;;;;;;;;;5072724;28;20337;-71
2023/10/19 15:45:08;;;;;;;;;;;;;;;;;;5071438;28;19997;-71
2023/10/19 15:47:33;;;;;;;;;;;;;;;;;;5072815;28;20021;-72
2023/10/19 15:49:59;;;;;;;;;;;;;;;;;;5073907;28;20346;-70
2023/10/19 15:52:26;;;;;;;;;;;;;;;;;;5073240;28;20114;-71
2023/10/19 15:54:52;;;;;;;;;;;;;;;;;;5071405;28;20051;-71
2023/10/19 15:57:18;;;;;;;;;;;;;;;;;;5072577;28;20040;-70
2023/10/19 15:59:44;;;;;;;;;;;;;;;;;;5070907;28;20096;-72
2023/10/19 16:02:10;;;;;;;;;;;;;;;;;;5071699;28;20092;-71
2023/10/19 16:04:36;;;;;;;;;;;;;;;;;;5070625;28;20001;-71
2023/10/19 16:07:02;;;;;;;;;;;;;;;;;;5072812;28;20000;-71
2023/10/19 16:09:29;;;;;;;;;;;;;;;;;;5073140;28;20017;-71
2023/10/19 16:11:55;;;;;;;;;;;;;;;;;;5073152;28;19990;-71
2023/10/19 16:14:21;;;;;;;;;;;;;;;;;;5052262;28;19993;-71
2023/10/19 16:16:47;;;;;;;;;;;;;;;;;;5071620;28;19993;-71
2023/10/19 16:19:13;;;;;;;;;;;;;;;;;;5072603;28;20003;-71
2023/10/19 16:21:40;;;;;;;;;;;;;;;;;;5072762;28;19999;-71
2023/10/19 16:24:06;;;;;;;;;;;;;;;;;;5071860;28;19989;-71
2023/10/19 16:26:34;;;;;;;;;;;;;;;;;;5072378;28;20507;-72
2023/10/19 16:29:00;;;;;;;;;;;;;;;;;;5071389;28;20017;-72
2023/10/19 16:31:26;;;;;;;;;;;;;;;;;;5067985;28;20039;-70
2023/10/19 16:33:53;;;;;;;;;;;;;;;;;;5061696;28;20044;-70
2023/10/19 16:36:18;;;;;;;;;;;;;;;;;;5070692;28;19993;-69
2023/10/19 16:38:44;;;;;;;;;;;;;;;;;;5066238;28;19989;-69
2023/10/19 16:41:11;;;;;;;;;;;;;;;;;;5072679;28;20084;-68
2023/10/19 16:43:37;;;;;;;;;;;;;;;;;;5072348;28;19989;-69
2023/10/19 16:46:04;;;;;;;;;;;;;;;;;;5072307;28;20442;-69
2023/10/19 16:48:30;;;;;;;;;;;;;;;;;;5072105;28;20025;-68
2023/10/19 16:50:56;;;;;;;;;;;;;;;;;;5072435;28;20050;-70
2023/10/19 16:53:22;;;;;;;;;;;;;;;;;;5072638;28;20066;-70
2023/10/19 16:55:48;;;;;;;;;;;;;;;;;;5071582;28;19994;-70